sensor_id;sensor_type;location;lat;lon;timestamp;pressure;altitude;pressure_sealevel;temperature;humidity
19843;BME280;10082;51.038;6.992;2023-02-17T00:00:32;112171.53;;;-144.33;100.00
19843;BME280;10082;51.038;6.992;2023-02-17T00:03:00;112171.53;;;-144.33;100.00
19843;BME280;10082;51.038;6.992;2023-02-17T00:05:27;112171.53;;;-144.33;100.00
19843;BME280;10082;51.038;6.992;2023-02-17T00:07:54;112171.53;;;-144.33;100.00
19843;BME280;10082;51.038;6.992;2023-02-17T00:10:23;112171.53;;;-144.33;100.00
19843;BME280;10082;51.038;6.992;2023-02-17T00:12:50;112171.53;;;-144.33;100.00
19843;BME280;10082;51.038;6.992;2023-02-17T00:15:17;112171.53;;;-144.33;100.00
19843;BME280;10082;51.038;6.992;2023-02-17T00:17:44;112171.53;;;-144.33;100.00
19843;BME280;10082;51.038;6.992;2023-02-17T00:20:11;112171.53;;;-144.33;100.00
19843;BME280;10082;51.038;6.992;2023-02-17T00:22:38;112171.53;;;-144.33;100.00
19843;BME280;10082;51.038;6.992;2023-02-17T00:25:05;112171.53;;;-144.33;100.00
19843;BME280;10082;51.038;6.992;2023-02-17T00:27:34;112171.53;;;-144.33;100.00
19843;BME280;10082;51.038;6.992;2023-02-17T00:30:01;112171.53;;;-144.33;100.00
19843;BME280;10082;51.038;6.992;2023-02-17T00:32:28;112171.53;;;-144.33;100.00
19843;BME280;10082;51.038;6.992;2023-02-17T00:34:55;112171.53;;;-144.33;100.00
19843;BME280;10082;51.038;6.992;2023-02-17T00:37:23;112171.53;;;-144.33;100.00
19843;BME280;10082;51.038;6.992;2023-02-17T00:39:50;112171.53;;;-144.33;100.00
19843;BME280;10082;51.038;6.992;2023-02-17T00:42:17;112171.53;;;-144.33;100.00
19843;BME280;10082;51.038;6.992;2023-02-17T00:44:46;112171.53;;;-144.33;100.00
19843;BME280;10082;51.038;6.992;2023-02-17T00:47:13;112171.53;;;-144.33;100.00
19843;BME280;10082;51.038;6.992;2023-02-17T00:49:40;112171.53;;;-144.33;100.00
19843;BME280;10082;51.038;6.992;2023-02-17T00:52:07;112171.53;;;-144.33;100.00
19843;BME280;10082;51.038;6.992;2023-02-17T00:54:34;112171.53;;;-144.33;100.00
19843;BME280;10082;51.038;6.992;2023-02-17T00:57:07;112171.53;;;-144.33;100.00
19843;BME280;10082;51.038;6.992;2023-02-17T00:59:34;112171.53;;;-144.33;100.00
19843;BME280;10082;51.038;6.992;2023-02-17T01:02:03;112171.53;;;-144.33;100.00
19843;BME280;10082;51.038;6.992;2023-02-17T01:04:30;112171.53;;;-144.33;100.00
19843;BME280;10082;51.038;6.992;2023-02-17T01:06:56;112171.53;;;-144.33;100.00
19843;BME280;10082;51.038;6.992;2023-02-17T01:09:24;112171.53;;;-144.33;100.00
19843;BME280;10082;51.038;6.992;2023-02-17T01:11:51;112171.53;;;-144.33;100.00
19843;BME280;10082;51.038;6.992;2023-02-17T01:14:18;112171.53;;;-144.33;100.00
19843;BME280;10082;51.038;6.992;2023-02-17T01:16:47;112171.53;;;-144.33;100.00
19843;BME280;10082;51.038;6.992;2023-02-17T01:19:17;112171.53;;;-144.33;100.00
19843;BME280;10082;51.038;6.992;2023-02-17T01:21:47;112171.53;;;-144.33;100.00
19843;BME280;10082;51.038;6.992;2023-02-17T01:24:14;112171.53;;;-144.33;100.00
19843;BME280;10082;51.038;6.992;2023-02-17T01:26:41;112171.53;;;-144.33;100.00
19843;BME280;10082;51.038;6.992;2023-02-17T01:29:09;112171.53;;;-144.33;100.00
19843;BME280;10082;51.038;6.992;2023-02-17T01:31:38;112171.53;;;-144.33;100.00
19843;BME280;10082;51.038;6.992;2023-02-17T01:34:05;112171.53;;;-144.33;100.00
19843;BME280;10082;51.038;6.992;2023-02-17T01:36:34;112171.53;;;-144.33;100.00
19843;BME280;10082;51.038;6.992;2023-02-17T01:39:00;112171.53;;;-144.33;100.00
19843;BME280;10082;51.038;6.992;2023-02-17T01:41:28;112171.53;;;-144.33;100.00
19843;BME280;10082;51.038;6.992;2023-02-17T01:44:11;112171.53;;;-144.33;100.00
19843;BME280;10082;51.038;6.992;2023-02-17T01:46:39;112171.53;;;-144.33;100.00
19843;BME280;10082;51.038;6.992;2023-02-17T01:49:18;112171.53;;;-144.33;100.00
19843;BME280;10082;51.038;6.992;2023-02-17T01:51:52;112171.53;;;-144.33;100.00
19843;BME280;10082;51.038;6.992;2023-02-17T01:54:25;112171.53;;;-144.33;100.00
19843;BME280;10082;51.038;6.992;2023-02-17T01:56:54;112171.53;;;-144.33;100.00
19843;BME280;10082;51.038;6.992;2023-02-17T01:59:23;112171.53;;;-144.33;100.00
19843;BME280;10082;51.038;6.992;2023-02-17T02:01:54;112171.53;;;-144.33;100.00
19843;BME280;10082;51.038;6.992;2023-02-17T02:04:25;112171.53;;;-144.33;100.00
19843;BME280;10082;51.038;6.992;2023-02-17T02:06:56;112171.53;;;-144.33;100.00
19843;BME280;10082;51.038;6.992;2023-02-17T02:09:29;112171.53;;;-144.33;100.00
19843;BME280;10082;51.038;6.992;2023-02-17T02:12:02;112171.53;;;-144.33;100.00
19843;BME280;10082;51.038;6.992;2023-02-17T02:14:31;112171.53;;;-144.33;100.00
19843;BME280;10082;51.038;6.992;2023-02-17T02:17:05;112171.53;;;-144.33;100.00
19843;BME280;10082;51.038;6.992;2023-02-17T02:20:02;112171.53;;;-144.33;100.00
19843;BME280;10082;51.038;6.992;2023-02-17T02:22:50;112171.53;;;-144.33;100.00
19843;BME280;10082;51.038;6.992;2023-02-17T02:25:36;112171.53;;;-144.33;100.00
19843;BME280;10082;51.038;6.992;2023-02-17T02:28:17;112171.53;;;-144.33;100.00
19843;BME280;10082;51.038;6.992;2023-02-17T02:30:56;112171.53;;;-144.33;100.00
19843;BME280;10082;51.038;6.992;2023-02-17T02:33:32;112171.53;;;-144.33;100.00
19843;BME280;10082;51.038;6.992;2023-02-17T02:36:05;112171.53;;;-144.33;100.00
19843;BME280;10082;51.038;6.992;2023-02-17T02:38:40;112171.53;;;-144.33;100.00
19843;BME280;10082;51.038;6.992;2023-02-17T02:41:12;112171.53;;;-144.33;100.00
19843;BME280;10082;51.038;6.992;2023-02-17T02:43:41;112171.53;;;-144.33;100.00
19843;BME280;10082;51.038;6.992;2023-02-17T02:46:08;112171.53;;;-144.33;100.00
19843;BME280;10082;51.038;6.992;2023-02-17T02:48:38;112171.53;;;-144.33;100.00
19843;BME280;10082;51.038;6.992;2023-02-17T02:51:22;112171.53;;;-144.33;100.00
19843;BME280;10082;51.038;6.992;2023-02-17T02:54:05;112171.53;;;-144.33;100.00
19843;BME280;10082;51.038;6.992;2023-02-17T02:56:48;112171.53;;;-144.33;100.00
19843;BME280;10082;51.038;6.992;2023-02-17T02:59:32;112171.53;;;-144.33;100.00
19843;BME280;10082;51.038;6.992;2023-02-17T03:02:09;112171.53;;;-144.33;100.00
19843;BME280;10082;51.038;6.992;2023-02-17T03:04:46;112171.53;;;-144.33;100.00
19843;BME280;10082;51.038;6.992;2023-02-17T03:07:18;112171.53;;;-144.33;100.00
19843;BME280;10082;51.038;6.992;2023-02-17T03:09:50;112171.53;;;-144.33;100.00
19843;BME280;10082;51.038;6.992;2023-02-17T03:12:17;112171.53;;;-144.33;100.00
19843;BME280;10082;51.038;6.992;2023-02-17T03:14:46;112171.53;;;-144.33;100.00
19843;BME280;10082;51.038;6.992;2023-02-17T03:17:15;112171.53;;;-144.33;100.00
19843;BME280;10082;51.038;6.992;2023-02-17T03:19:49;112171.53;;;-144.33;100.00
19843;BME280;10082;51.038;6.992;2023-02-17T03:22:25;112171.53;;;-144.33;100.00
19843;BME280;10082;51.038;6.992;2023-02-17T03:24:55;112171.53;;;-144.33;100.00
19843;BME280;10082;51.038;6.992;2023-02-17T03:27:25;112171.53;;;-144.33;100.00
19843;BME280;10082;51.038;6.992;2023-02-17T03:29:52;112171.53;;;-144.33;100.00
19843;BME280;10082;51.038;6.992;2023-02-17T03:32:19;112171.53;;;-144.33;100.00
19843;BME280;10082;51.038;6.992;2023-02-17T03:34:46;112171.53;;;-144.33;100.00
19843;BME280;10082;51.038;6.992;2023-02-17T03:37:15;112171.53;;;-144.33;100.00
19843;BME280;10082;51.038;6.992;2023-02-17T03:39:42;112171.53;;;-144.33;100.00
19843;BME280;10082;51.038;6.992;2023-02-17T03:42:09;112171.53;;;-144.33;100.00
19843;BME280;10082;51.038;6.992;2023-02-17T03:44:37;112171.53;;;-144.33;100.00
19843;BME280;10082;51.038;6.992;2023-02-17T03:47:04;112171.53;;;-144.33;100.00
19843;BME280;10082;51.038;6.992;2023-02-17T03:49:31;112171.53;;;-144.33;100.00
19843;BME280;10082;51.038;6.992;2023-02-17T03:51:58;112171.53;;;-144.33;100.00
19843;BME280;10082;51.038;6.992;2023-02-17T03:54:26;112171.53;;;-144.33;100.00
19843;BME280;10082;51.038;6.992;2023-02-17T03:56:53;112171.53;;;-144.33;100.00
19843;BME280;10082;51.038;6.992;2023-02-17T03:59:20;112171.53;;;-144.33;100.00
19843;BME280;10082;51.038;6.992;2023-02-17T04:01:47;112171.53;;;-144.33;100.00
19843;BME280;10082;51.038;6.992;2023-02-17T04:04:15;112171.53;;;-144.33;100.00
19843;BME280;10082;51.038;6.992;2023-02-17T04:06:43;112171.53;;;-144.33;100.00
19843;BME280;10082;51.038;6.992;2023-02-17T04:09:10;112171.53;;;-144.33;100.00
19843;BME280;10082;51.038;6.992;2023-02-17T04:11:38;112171.53;;;-144.33;100.00
19843;BME280;10082;51.038;6.992;2023-02-17T04:14:05;112171.53;;;-144.33;100.00
19843;BME280;10082;51.038;6.992;2023-02-17T04:16:32;112171.53;;;-144.33;100.00
19843;BME280;10082;51.038;6.992;2023-02-17T04:18:59;112171.53;;;-144.33;100.00
19843;BME280;10082;51.038;6.992;2023-02-17T04:21:26;112171.53;;;-144.33;100.00
19843;BME280;10082;51.038;6.992;2023-02-17T04:23:53;112171.53;;;-144.33;100.00
19843;BME280;10082;51.038;6.992;2023-02-17T04:26:20;112171.53;;;-144.33;100.00
19843;BME280;10082;51.038;6.992;2023-02-17T04:28:48;112171.53;;;-144.33;100.00
19843;BME280;10082;51.038;6.992;2023-02-17T04:31:15;112171.53;;;-144.33;100.00
19843;BME280;10082;51.038;6.992;2023-02-17T04:33:42;112171.53;;;-144.33;100.00
19843;BME280;10082;51.038;6.992;2023-02-17T04:36:09;112171.53;;;-144.33;100.00
19843;BME280;10082;51.038;6.992;2023-02-17T04:38:37;112171.53;;;-144.33;100.00
19843;BME280;10082;51.038;6.992;2023-02-17T04:41:04;112171.53;;;-144.33;100.00
19843;BME280;10082;51.038;6.992;2023-02-17T04:43:32;112171.53;;;-144.33;100.00
19843;BME280;10082;51.038;6.992;2023-02-17T04:46:01;112171.53;;;-144.33;100.00
19843;BME280;10082;51.038;6.992;2023-02-17T04:48:28;112171.53;;;-144.33;100.00
19843;BME280;10082;51.038;6.992;2023-02-17T04:50:55;112171.53;;;-144.33;100.00
19843;BME280;10082;51.038;6.992;2023-02-17T04:53:22;112171.53;;;-144.33;100.00
19843;BME280;10082;51.038;6.992;2023-02-17T04:55:51;112171.53;;;-144.33;100.00
19843;BME280;10082;51.038;6.992;2023-02-17T04:58:19;112171.53;;;-144.33;100.00
19843;BME280;10082;51.038;6.992;2023-02-17T05:00:48;112171.53;;;-144.33;100.00
19843;BME280;10082;51.038;6.992;2023-02-17T05:03:17;112171.53;;;-144.33;100.00
19843;BME280;10082;51.038;6.992;2023-02-17T05:05:44;112171.53;;;-144.33;100.00
19843;BME280;10082;51.038;6.992;2023-02-17T05:08:11;112171.53;;;-144.33;100.00
19843;BME280;10082;51.038;6.992;2023-02-17T05:10:38;112171.53;;;-144.33;100.00
19843;BME280;10082;51.038;6.992;2023-02-17T05:13:06;112171.53;;;-144.33;100.00
19843;BME280;10082;51.038;6.992;2023-02-17T05:15:33;112171.53;;;-144.33;100.00
19843;BME280;10082;51.038;6.992;2023-02-17T05:18:01;112171.53;;;-144.33;100.00
19843;BME280;10082;51.038;6.992;2023-02-17T05:20:29;112171.53;;;-144.33;100.00
19843;BME280;10082;51.038;6.992;2023-02-17T05:22:57;112171.53;;;-144.33;100.00
19843;BME280;10082;51.038;6.992;2023-02-17T05:25:24;112171.53;;;-144.33;100.00
19843;BME280;10082;51.038;6.992;2023-02-17T05:27:51;112171.53;;;-144.33;100.00
19843;BME280;10082;51.038;6.992;2023-02-17T05:30:18;112171.53;;;-144.33;100.00
19843;BME280;10082;51.038;6.992;2023-02-17T05:32:45;112171.53;;;-144.33;100.00
19843;BME280;10082;51.038;6.992;2023-02-17T05:35:12;112171.53;;;-144.33;100.00
19843;BME280;10082;51.038;6.992;2023-02-17T05:37:41;112171.53;;;-144.33;100.00
19843;BME280;10082;51.038;6.992;2023-02-17T05:40:11;112171.53;;;-144.33;100.00
19843;BME280;10082;51.038;6.992;2023-02-17T05:42:38;112171.53;;;-144.33;100.00
19843;BME280;10082;51.038;6.992;2023-02-17T05:45:05;112171.53;;;-144.33;100.00
19843;BME280;10082;51.038;6.992;2023-02-17T05:47:32;112171.53;;;-144.33;100.00
19843;BME280;10082;51.038;6.992;2023-02-17T05:50:00;112171.53;;;-144.33;100.00
19843;BME280;10082;51.038;6.992;2023-02-17T05:52:27;112171.53;;;-144.33;100.00
19843;BME280;10082;51.038;6.992;2023-02-17T05:54:55;112171.53;;;-144.33;100.00
19843;BME280;10082;51.038;6.992;2023-02-17T05:57:22;112171.53;;;-144.33;100.00
19843;BME280;10082;51.038;6.992;2023-02-17T05:59:50;112171.53;;;-144.33;100.00
19843;BME280;10082;51.038;6.992;2023-02-17T06:02:18;112171.53;;;-144.33;100.00
19843;BME280;10082;51.038;6.992;2023-02-17T06:04:45;112171.53;;;-144.33;100.00
19843;BME280;10082;51.038;6.992;2023-02-17T06:07:12;112171.53;;;-144.33;100.00
19843;BME280;10082;51.038;6.992;2023-02-17T06:09:39;112171.53;;;-144.33;100.00
19843;BME280;10082;51.038;6.992;2023-02-17T06:12:08;112171.53;;;-144.33;100.00
19843;BME280;10082;51.038;6.992;2023-02-17T06:14:35;112171.53;;;-144.33;100.00
19843;BME280;10082;51.038;6.992;2023-02-17T06:17:02;112171.53;;;-144.33;100.00
19843;BME280;10082;51.038;6.992;2023-02-17T06:19:29;112171.53;;;-144.33;100.00
19843;BME280;10082;51.038;6.992;2023-02-17T06:21:56;112171.53;;;-144.33;100.00
19843;BME280;10082;51.038;6.992;2023-02-17T06:24:23;112171.53;;;-144.33;100.00
19843;BME280;10082;51.038;6.992;2023-02-17T06:26:50;112171.53;;;-144.33;100.00
19843;BME280;10082;51.038;6.992;2023-02-17T06:29:18;112171.53;;;-144.33;100.00
19843;BME280;10082;51.038;6.992;2023-02-17T06:31:47;112171.53;;;-144.33;100.00
19843;BME280;10082;51.038;6.992;2023-02-17T06:34:14;112171.53;;;-144.33;100.00
19843;BME280;10082;51.038;6.992;2023-02-17T06:36:41;112171.53;;;-144.33;100.00
19843;BME280;10082;51.038;6.992;2023-02-17T06:39:08;112171.53;;;-144.33;100.00
19843;BME280;10082;51.038;6.992;2023-02-17T06:41:35;112171.53;;;-144.33;100.00
19843;BME280;10082;51.038;6.992;2023-02-17T06:44:02;112171.53;;;-144.33;100.00
19843;BME280;10082;51.038;6.992;2023-02-17T06:46:31;112171.53;;;-144.33;100.00
19843;BME280;10082;51.038;6.992;2023-02-17T06:48:58;112171.53;;;-144.33;100.00
19843;BME280;10082;51.038;6.992;2023-02-17T06:51:26;112171.53;;;-144.33;100.00
19843;BME280;10082;51.038;6.992;2023-02-17T06:53:53;112171.53;;;-144.33;100.00
19843;BME280;10082;51.038;6.992;2023-02-17T06:56:21;112171.53;;;-144.33;100.00
19843;BME280;10082;51.038;6.992;2023-02-17T06:58:48;112171.53;;;-144.33;100.00
19843;BME280;10082;51.038;6.992;2023-02-17T07:01:17;112171.53;;;-144.33;100.00
19843;BME280;10082;51.038;6.992;2023-02-17T07:03:45;112125.25;;;-144.33;100.00
19843;BME280;10082;51.038;6.992;2023-02-17T07:06:13;112153.44;;;-144.33;100.00
19843;BME280;10082;51.038;6.992;2023-02-17T07:08:40;111813.25;;;-144.33;100.00
19843;BME280;10082;51.038;6.992;2023-02-17T07:11:08;111346.31;;;-144.33;100.00
19843;BME280;10082;51.038;6.992;2023-02-17T07:13:36;110639.94;;;-144.33;100.00
19843;BME280;10082;51.038;6.992;2023-02-17T07:16:04;106605.41;;;-144.33;100.00
19843;BME280;10082;51.038;6.992;2023-02-17T07:18:31;103177.41;;;-144.33;100.00
19843;BME280;10082;51.038;6.992;2023-02-17T07:20:59;101946.34;;;-144.33;100.00
19843;BME280;10082;51.038;6.992;2023-02-17T07:23:26;101331.97;;;-144.33;100.00
19843;BME280;10082;51.038;6.992;2023-02-17T07:25:53;100025.22;;;-144.33;100.00
19843;BME280;10082;51.038;6.992;2023-02-17T07:28:20;99228.53;;;-144.33;100.00
19843;BME280;10082;51.038;6.992;2023-02-17T07:30:47;98423.97;;;-144.33;100.00
19843;BME280;10082;51.038;6.992;2023-02-17T07:33:14;97226.44;;;-144.33;100.00
19843;BME280;10082;51.038;6.992;2023-02-17T07:35:41;96291.94;;;-144.33;100.00
19843;BME280;10082;51.038;6.992;2023-02-17T07:38:10;95205.31;;;-144.33;100.00
19843;BME280;10082;51.038;6.992;2023-02-17T07:40:38;94585.94;;;-144.33;100.00
19843;BME280;10082;51.038;6.992;2023-02-17T07:43:05;93716.19;;;-144.33;100.00
19843;BME280;10082;51.038;6.992;2023-02-17T07:45:32;93427.63;;;-144.33;100.00
19843;BME280;10082;51.038;6.992;2023-02-17T07:47:59;91600.66;;;-144.33;100.00
19843;BME280;10082;51.038;6.992;2023-02-17T07:50:26;90871.72;;;-144.33;100.00
19843;BME280;10082;51.038;6.992;2023-02-17T07:52:54;89842.59;;;-144.33;100.00
19843;BME280;10082;51.038;6.992;2023-02-17T07:55:22;89296.09;;;-144.33;100.00
19843;BME280;10082;51.038;6.992;2023-02-17T07:57:49;88339.41;;;-144.33;100.00
19843;BME280;10082;51.038;6.992;2023-02-17T08:00:17;87825.16;;;-144.33;100.00
19843;BME280;10082;51.038;6.992;2023-02-17T08:02:44;86904.81;;;-144.33;100.00
19843;BME280;10082;51.038;6.992;2023-02-17T08:05:11;86672.78;;;-144.33;100.00
19843;BME280;10082;51.038;6.992;2023-02-17T08:07:38;86964.84;;;-144.33;100.00
19843;BME280;10082;51.038;6.992;2023-02-17T08:10:06;86430.75;;;-144.33;100.00
19843;BME280;10082;51.038;6.992;2023-02-17T08:12:52;86192.72;;;-144.33;100.00
19843;BME280;10082;51.038;6.992;2023-02-17T08:15:36;86082.72;;;-144.33;100.00
19843;BME280;10082;51.038;6.992;2023-02-17T08:18:03;86124.72;;;-144.33;100.00
19843;BME280;10082;51.038;6.992;2023-02-17T08:20:31;86516.75;;;-144.33;100.00
19843;BME280;10082;51.038;6.992;2023-02-17T08:22:58;86872.81;;;-144.33;100.00
19843;BME280;10082;51.038;6.992;2023-02-17T08:25:26;87104.88;;;-144.33;100.00
19843;BME280;10082;51.038;6.992;2023-02-17T08:27:54;87042.84;;;-144.33;100.00
19843;BME280;10082;51.038;6.992;2023-02-17T08:30:21;87961.22;;;-144.33;100.00
19843;BME280;10082;51.038;6.992;2023-02-17T08:32:48;88345.41;;;-144.33;100.00
19843;BME280;10082;51.038;6.992;2023-02-17T08:35:15;89057.91;;;-144.33;100.00
19843;BME280;10082;51.038;6.992;2023-02-17T08:37:46;89460.22;;;-144.33;100.00
19843;BME280;10082;51.038;6.992;2023-02-17T08:40:14;89896.63;;;-144.33;100.00
19843;BME280;10082;51.038;6.992;2023-02-17T08:42:40;90733.53;;;-144.33;100.00
19843;BME280;10082;51.038;6.992;2023-02-17T08:45:11;91911.09;;;-144.33;100.00
19843;BME280;10082;51.038;6.992;2023-02-17T08:47:39;93024.91;;;-144.33;100.00
19843;BME280;10082;51.038;6.992;2023-02-17T08:50:08;94365.47;;;-144.33;100.00
19843;BME280;10082;51.038;6.992;2023-02-17T08:52:36;96071.38;;;-144.33;100.00
19843;BME280;10082;51.038;6.992;2023-02-17T08:55:03;97308.69;;;-144.33;100.00
19843;BME280;10082;51.038;6.992;2023-02-17T08:57:30;98618.56;;;-144.33;100.00
19843;BME280;10082;51.038;6.992;2023-02-17T08:59:57;100005.16;;;-144.33;100.00
19843;BME280;10082;51.038;6.992;2023-02-17T09:02:25;101542.78;;;-144.33;100.00
19843;BME280;10082;51.038;6.992;2023-02-17T09:04:52;104007.00;;;-144.33;100.00
19843;BME280;10082;51.038;6.992;2023-02-17T09:07:19;103225.59;;;-144.33;100.00
19843;BME280;10082;51.038;6.992;2023-02-17T09:09:46;104535.41;;;-144.33;100.00
19843;BME280;10082;51.038;6.992;2023-02-17T09:12:13;104965.41;;;-144.33;100.00
19843;BME280;10082;51.038;6.992;2023-02-17T09:14:40;106002.38;;;-144.33;100.00
19843;BME280;10082;51.038;6.992;2023-02-17T09:17:09;106981.34;;;-144.33;100.00
19843;BME280;10082;51.038;6.992;2023-02-17T09:19:38;108306.44;;;-144.33;100.00
19843;BME280;10082;51.038;6.992;2023-02-17T09:22:05;111048.44;;;-144.33;100.00
19843;BME280;10082;51.038;6.992;2023-02-17T09:24:32;112171.53;;;-144.33;100.00
19843;BME280;10082;51.038;6.992;2023-02-17T09:27:03;112171.53;;;-144.33;100.00
19843;BME280;10082;51.038;6.992;2023-02-17T09:29:29;112171.53;;;-144.33;100.00
19843;BME280;10082;51.038;6.992;2023-02-17T09:31:57;112171.53;;;-144.33;100.00
19843;BME280;10082;51.038;6.992;2023-02-17T09:34:24;112171.53;;;-144.33;100.00
19843;BME280;10082;51.038;6.992;2023-02-17T09:36:53;112171.53;;;-144.33;100.00
19843;BME280;10082;51.038;6.992;2023-02-17T09:39:23;112171.53;;;-144.33;100.00
19843;BME280;10082;51.038;6.992;2023-02-17T09:41:51;112171.53;;;-144.33;100.00
19843;BME280;10082;51.038;6.992;2023-02-17T09:44:21;112171.53;;;-144.33;100.00
19843;BME280;10082;51.038;6.992;2023-02-17T09:46:57;112171.53;;;-144.33;100.00
19843;BME280;10082;51.038;6.992;2023-02-17T09:49:31;112171.53;;;-144.33;100.00
19843;BME280;10082;51.038;6.992;2023-02-17T09:52:06;112171.53;;;-144.33;100.00
19843;BME280;10082;51.038;6.992;2023-02-17T09:54:39;112171.53;;;-144.33;100.00
19843;BME280;10082;51.038;6.992;2023-02-17T09:57:14;112171.53;;;-144.33;100.00
19843;BME280;10082;51.038;6.992;2023-02-17T09:59:47;112171.53;;;-144.33;100.00
19843;BME280;10082;51.038;6.992;2023-02-17T10:02:22;112171.53;;;-144.33;100.00
19843;BME280;10082;51.038;6.992;2023-02-17T10:04:54;112171.53;;;-144.33;100.00
19843;BME280;10082;51.038;6.992;2023-02-17T10:07:28;112171.53;;;-144.33;100.00
19843;BME280;10082;51.038;6.992;2023-02-17T10:10:01;112171.53;;;-144.33;100.00
19843;BME280;10082;51.038;6.992;2023-02-17T10:12:31;112171.53;;;-144.33;100.00
19843;BME280;10082;51.038;6.992;2023-02-17T10:15:04;112171.53;;;-144.33;100.00
19843;BME280;10082;51.038;6.992;2023-02-17T10:17:36;112171.53;;;-144.33;100.00
19843;BME280;10082;51.038;6.992;2023-02-17T10:20:09;112171.53;;;-144.33;100.00
19843;BME280;10082;51.038;6.992;2023-02-17T10:22:39;112171.53;;;-144.33;100.00
19843;BME280;10082;51.038;6.992;2023-02-17T10:25:14;112171.53;;;-144.33;100.00
19843;BME280;10082;51.038;6.992;2023-02-17T10:27:45;112171.53;;;-144.33;100.00
19843;BME280;10082;51.038;6.992;2023-02-17T10:33:36;112171.53;;;-144.33;100.00
19843;BME280;10082;51.038;6.992;2023-02-17T10:36:10;112171.53;;;-144.33;100.00
19843;BME280;10082;51.038;6.992;2023-02-17T10:38:48;112171.53;;;-144.33;100.00
19843;BME280;10082;51.038;6.992;2023-02-17T10:41:20;112171.53;;;-144.33;100.00
19843;BME280;10082;51.038;6.992;2023-02-17T10:43:47;112171.53;;;-144.33;100.00
19843;BME280;10082;51.038;6.992;2023-02-17T10:46:18;112171.53;;;-144.33;100.00
19843;BME280;10082;51.038;6.992;2023-02-17T10:48:49;112171.53;;;-144.33;100.00
19843;BME280;10082;51.038;6.992;2023-02-17T10:51:21;112171.53;;;-144.33;100.00
19843;BME280;10082;51.038;6.992;2023-02-17T10:53:53;112171.53;;;-144.33;100.00
19843;BME280;10082;51.038;6.992;2023-02-17T10:56:26;112171.53;;;-144.33;100.00
19843;BME280;10082;51.038;6.992;2023-02-17T10:59:00;112171.53;;;-144.33;100.00
19843;BME280;10082;51.038;6.992;2023-02-17T11:01:31;112171.53;;;-144.33;100.00
19843;BME280;10082;51.038;6.992;2023-02-17T11:04:00;112171.53;;;-144.33;100.00
19843;BME280;10082;51.038;6.992;2023-02-17T11:06:28;112171.53;;;-144.33;100.00
19843;BME280;10082;51.038;6.992;2023-02-17T11:09:00;112171.53;;;-144.33;100.00
19843;BME280;10082;51.038;6.992;2023-02-17T11:11:30;112171.53;;;-144.33;100.00
19843;BME280;10082;51.038;6.992;2023-02-17T11:14:02;112171.53;;;-144.33;100.00
19843;BME280;10082;51.038;6.992;2023-02-17T11:16:37;112171.53;;;-144.33;100.00
19843;BME280;10082;51.038;6.992;2023-02-17T11:19:05;112171.53;;;-144.33;100.00
19843;BME280;10082;51.038;6.992;2023-02-17T11:21:32;112171.53;;;-144.33;100.00
19843;BME280;10082;51.038;6.992;2023-02-17T11:24:03;112171.53;;;-144.33;100.00
19843;BME280;10082;51.038;6.992;2023-02-17T11:26:32;112171.53;;;-144.33;100.00
19843;BME280;10082;51.038;6.992;2023-02-17T11:29:07;112171.53;;;-144.33;100.00
19843;BME280;10082;51.038;6.992;2023-02-17T11:31:34;112171.53;;;-144.33;100.00
19843;BME280;10082;51.038;6.992;2023-02-17T11:34:10;112171.53;;;-144.33;100.00
19843;BME280;10082;51.038;6.992;2023-02-17T11:36:38;112171.53;;;-144.33;100.00
19843;BME280;10082;51.038;6.992;2023-02-17T11:39:16;112171.53;;;-144.33;100.00
19843;BME280;10082;51.038;6.992;2023-02-17T11:41:44;112171.53;;;-144.33;100.00
19843;BME280;10082;51.038;6.992;2023-02-17T11:44:20;112171.53;;;-144.33;100.00
19843;BME280;10082;51.038;6.992;2023-02-17T11:46:54;112171.53;;;-144.33;100.00
19843;BME280;10082;51.038;6.992;2023-02-17T11:49:40;112171.53;;;-144.33;100.00
19843;BME280;10082;51.038;6.992;2023-02-17T11:52:21;112171.53;;;-144.33;100.00
19843;BME280;10082;51.038;6.992;2023-02-17T11:55:05;112171.53;;;-144.33;100.00
19843;BME280;10082;51.038;6.992;2023-02-17T11:57:39;112171.53;;;-144.33;100.00
19843;BME280;10082;51.038;6.992;2023-02-17T12:00:17;112171.53;;;-144.33;100.00
19843;BME280;10082;51.038;6.992;2023-02-17T12:03:16;112171.53;;;-144.33;100.00
19843;BME280;10082;51.038;6.992;2023-02-17T12:05:52;112171.53;;;-144.33;100.00
19843;BME280;10082;51.038;6.992;2023-02-17T12:08:26;112171.53;;;-144.33;100.00
19843;BME280;10082;51.038;6.992;2023-02-17T12:11:08;112171.53;;;-144.33;100.00
19843;BME280;10082;51.038;6.992;2023-02-17T12:13:47;112171.53;;;-144.33;100.00
19843;BME280;10082;51.038;6.992;2023-02-17T12:16:26;112171.53;;;-144.33;100.00
19843;BME280;10082;51.038;6.992;2023-02-17T12:19:11;112171.53;;;-144.33;100.00
19843;BME280;10082;51.038;6.992;2023-02-17T12:21:51;112171.53;;;-144.33;100.00
19843;BME280;10082;51.038;6.992;2023-02-17T12:24:43;112171.53;;;-144.33;100.00
19843;BME280;10082;51.038;6.992;2023-02-17T12:27:25;112171.53;;;-144.33;100.00
19843;BME280;10082;51.038;6.992;2023-02-17T12:30:07;112171.53;;;-144.33;100.00
19843;BME280;10082;51.038;6.992;2023-02-17T12:32:49;112171.53;;;-144.33;100.00
19843;BME280;10082;51.038;6.992;2023-02-17T12:35:23;112171.53;;;-144.33;100.00
19843;BME280;10082;51.038;6.992;2023-02-17T12:37:54;112171.53;;;-144.33;100.00